createdAt,value
2022-10-23T00:00:15.705Z,11.73
2022-10-23T00:02:42.530Z,11.75
2022-10-23T00:05:09.200Z,11.77
2022-10-23T00:07:35.629Z,11.78
2022-10-23T00:10:02.070Z,11.80
2022-10-23T00:12:28.454Z,11.84
2022-10-23T00:14:54.837Z,11.84
2022-10-23T00:17:21.258Z,11.86
2022-10-23T00:19:47.631Z,11.88
2022-10-23T00:22:14.013Z,11.87
2022-10-23T00:24:40.370Z,11.83
2022-10-23T00:27:06.750Z,11.81
2022-10-23T00:29:33.112Z,11.84
2022-10-23T00:31:59.521Z,11.87
2022-10-23T00:34:25.911Z,11.92
2022-10-23T00:36:52.301Z,11.94
2022-10-23T00:39:18.669Z,11.98
2022-10-23T00:41:45.092Z,12.00
2022-10-23T00:44:31.725Z,11.95
2022-10-23T00:46:58.882Z,11.91
2022-10-23T00:49:25.663Z,11.89
2022-10-23T00:51:54.359Z,11.87
2022-10-23T00:54:24.474Z,11.88
2022-10-23T00:56:52.484Z,11.86
2022-10-23T00:59:18.886Z,11.88
2022-10-23T01:01:45.373Z,11.90
2022-10-23T01:04:11.980Z,11.87
2022-10-23T01:06:43.392Z,11.89
2022-10-23T01:09:09.826Z,11.93
2022-10-23T01:11:44.697Z,11.96
2022-10-23T01:14:26.469Z,12.00
2022-10-23T01:17:00.518Z,12.04
2022-10-23T01:19:45.915Z,11.99
2022-10-23T01:22:27.971Z,11.92
2022-10-23T01:24:58.821Z,11.91
2022-10-23T01:27:32.865Z,11.90
2022-10-23T01:30:02.294Z,11.85
2022-10-23T01:32:58.092Z,11.79
2022-10-23T01:35:28.289Z,11.83
2022-10-23T01:37:56.445Z,11.85
2022-10-23T01:40:37.500Z,11.86
2022-10-23T01:43:12.030Z,11.83
2022-10-23T01:45:43.757Z,11.85
2022-10-23T01:48:13.595Z,11.90
2022-10-23T01:50:41.684Z,11.91
2022-10-23T01:53:08.439Z,11.95
2022-10-23T01:55:37.467Z,11.93
2022-10-23T01:58:07.319Z,11.91
2022-10-23T02:00:34.480Z,11.90
2022-10-23T02:03:03.315Z,11.88
2022-10-23T02:05:30.184Z,11.90
2022-10-23T02:07:57.100Z,11.91
2022-10-23T02:10:30.270Z,11.91
2022-10-23T02:13:10.106Z,11.92
2022-10-23T02:15:56.714Z,11.96
2022-10-23T02:18:32.328Z,12.01
2022-10-23T02:21:10.436Z,12.05
2022-10-23T02:23:56.305Z,12.08
2022-10-23T02:26:49.114Z,12.11
2022-10-23T02:29:27.011Z,12.12
2022-10-23T02:31:53.466Z,12.13
2022-10-23T02:34:19.980Z,12.14
2022-10-23T02:36:46.403Z,12.16
2022-10-23T02:39:12.813Z,12.14
2022-10-23T02:41:51.062Z,12.16
2022-10-23T02:44:37.511Z,12.20
2022-10-23T02:47:09.747Z,12.18
2022-10-23T02:49:44.526Z,12.11
2022-10-23T02:52:14.787Z,12.05
2022-10-23T02:54:53.121Z,11.92
2022-10-23T02:57:39.895Z,11.86
2022-10-23T03:00:09.496Z,11.90
2022-10-23T03:02:38.330Z,11.92
2022-10-23T03:05:06.176Z,11.97
2022-10-23T03:07:32.837Z,12.01
2022-10-23T03:09:59.216Z,12.07
2022-10-23T03:12:25.588Z,12.08
2022-10-23T03:14:52.025Z,12.08
2022-10-23T03:17:18.391Z,12.06
2022-10-23T03:19:44.770Z,12.01
2022-10-23T03:22:11.140Z,11.94
2022-10-23T03:24:37.520Z,11.98
2022-10-23T03:27:03.947Z,12.01
2022-10-23T03:29:30.400Z,12.03
2022-10-23T03:31:56.780Z,11.97
2022-10-23T03:34:23.183Z,11.94
2022-10-23T03:36:49.612Z,11.92
2022-10-23T03:39:16.650Z,11.90
2022-10-23T03:41:43.016Z,11.84
2022-10-23T03:44:09.503Z,11.83
2022-10-23T03:46:35.930Z,11.88
2022-10-23T03:49:02.318Z,11.95
2022-10-23T03:51:28.734Z,11.92
2022-10-23T03:53:55.420Z,11.92
2022-10-23T03:56:21.866Z,11.90
2022-10-23T03:58:48.351Z,11.90
2022-10-23T04:01:14.830Z,11.92
2022-10-23T04:03:41.227Z,11.85
2022-10-23T04:06:07.724Z,11.79
2022-10-23T04:08:34.140Z,11.74
2022-10-23T04:11:00.520Z,11.70
2022-10-23T04:13:26.890Z,11.74
2022-10-23T04:15:53.379Z,11.79
2022-10-23T04:18:19.776Z,11.84
2022-10-23T04:20:49.643Z,11.85
2022-10-23T04:23:16.354Z,11.83
2022-10-23T04:25:42.741Z,11.78
2022-10-23T04:28:09.159Z,11.74
2022-10-23T04:30:35.578Z,11.70
2022-10-23T04:33:01.968Z,11.62
2022-10-23T04:35:28.379Z,11.44
2022-10-23T04:37:54.835Z,11.36
2022-10-23T04:40:21.210Z,11.33
2022-10-23T04:42:47.601Z,11.29
2022-10-23T04:45:13.980Z,11.22
2022-10-23T04:47:40.365Z,11.16
2022-10-23T04:50:06.879Z,11.15
2022-10-23T04:52:33.288Z,11.14
2022-10-23T04:54:59.651Z,11.15
2022-10-23T04:57:26.085Z,11.16
2022-10-23T04:59:52.437Z,11.16
2022-10-23T05:02:18.883Z,11.13
2022-10-23T05:04:45.243Z,11.07
2022-10-23T05:07:11.739Z,11.01
2022-10-23T05:09:38.200Z,10.97
2022-10-23T05:12:04.587Z,10.93
2022-10-23T05:14:30.926Z,10.90
2022-10-23T05:17:02.499Z,10.85
2022-10-23T05:19:32.985Z,10.77
2022-10-23T05:21:59.593Z,10.72
2022-10-23T05:24:26.389Z,10.66
2022-10-23T05:26:53.092Z,10.61
2022-10-23T05:29:19.892Z,10.54
2022-10-23T05:31:46.853Z,10.47
2022-10-23T05:34:14.434Z,10.44
2022-10-23T05:36:41.334Z,10.40
2022-10-23T05:39:07.718Z,10.37
2022-10-23T05:41:34.112Z,10.32
2022-10-23T05:44:00.504Z,10.27
2022-10-23T05:46:27.999Z,10.22
2022-10-23T05:48:54.457Z,10.21
2022-10-23T05:51:23.014Z,10.18
2022-10-23T05:53:49.693Z,10.15
2022-10-23T05:56:16.172Z,10.16
2022-10-23T05:58:43.156Z,10.14
2022-10-23T06:01:10.830Z,10.09
2022-10-23T06:03:37.622Z,10.09
2022-10-23T06:06:04.553Z,10.09
2022-10-23T06:08:31.203Z,10.10
2022-10-23T06:10:57.901Z,10.11
2022-10-23T06:13:24.418Z,10.10
2022-10-23T06:15:50.830Z,10.07
2022-10-23T06:18:17.203Z,10.08
2022-10-23T06:20:44.314Z,10.06
2022-10-23T06:23:10.675Z,10.03
2022-10-23T06:25:37.162Z,10.03
2022-10-23T06:28:03.570Z,10.02
2022-10-23T06:30:30.038Z,10.01
2022-10-23T06:32:56.575Z,10.00
2022-10-23T06:35:22.958Z,9.99
2022-10-23T06:37:49.360Z,10.01
2022-10-23T06:40:15.759Z,10.02
2022-10-23T06:42:42.365Z,10.00
2022-10-23T06:45:09.103Z,10.00
2022-10-23T06:47:35.504Z,9.99
2022-10-23T06:50:01.910Z,10.00
2022-10-23T06:52:47.774Z,10.00
2022-10-23T06:55:14.520Z,10.03
2022-10-23T06:57:41.239Z,10.04
2022-10-23T07:00:08.161Z,10.05
2022-10-23T07:02:34.526Z,10.07
2022-10-23T07:05:00.893Z,10.08
2022-10-23T07:07:29.304Z,10.08
2022-10-23T07:09:55.689Z,10.09
2022-10-23T07:12:22.168Z,10.12
2022-10-23T07:14:48.541Z,10.12
2022-10-23T07:17:14.934Z,10.14
2022-10-23T07:19:41.357Z,10.16
2022-10-23T07:22:09.734Z,10.18
2022-10-23T07:24:38.625Z,10.21
2022-10-23T07:27:04.999Z,10.22
2022-10-23T07:29:31.614Z,10.24
2022-10-23T07:31:58.638Z,10.27
2022-10-23T07:34:25.010Z,10.31
2022-10-23T07:36:51.446Z,10.33
2022-10-23T07:39:17.836Z,10.37
2022-10-23T07:41:44.201Z,10.42
2022-10-23T07:44:10.564Z,10.46
2022-10-23T07:46:36.957Z,10.49
2022-10-23T07:49:03.340Z,10.52
2022-10-23T07:51:29.758Z,10.57
2022-10-23T07:53:56.140Z,10.61
2022-10-23T07:56:24.273Z,10.64
2022-10-23T07:58:50.873Z,10.67
2022-10-23T08:01:19.141Z,10.72
2022-10-23T08:03:45.620Z,10.75
2022-10-23T08:06:12.318Z,10.81
2022-10-23T08:08:38.811Z,10.86
2022-10-23T08:11:05.407Z,10.88
2022-10-23T08:13:32.147Z,10.89
2022-10-23T08:15:58.742Z,10.92
2022-10-23T08:18:25.227Z,10.94
2022-10-23T08:20:52.538Z,10.98
2022-10-23T08:23:19.302Z,11.03
2022-10-23T08:25:46.145Z,11.07
2022-10-23T08:28:12.587Z,11.11
2022-10-23T08:30:39.007Z,11.25
2022-10-23T08:33:05.860Z,11.39
2022-10-23T08:35:35.706Z,11.47
2022-10-23T08:38:02.150Z,11.53
2022-10-23T08:40:28.576Z,11.57
2022-10-23T08:43:15.196Z,11.61
2022-10-23T08:45:52.863Z,11.69
2022-10-23T08:48:31.025Z,11.79
2022-10-23T08:51:18.121Z,11.92
2022-10-23T08:53:44.496Z,12.01
2022-10-23T08:56:20.797Z,12.10
2022-10-23T09:01:43.367Z,12.14
2022-10-23T09:04:14.163Z,12.35
2022-10-23T09:07:06.755Z,12.45
2022-10-23T09:09:51.731Z,12.59
2022-10-23T09:12:21.149Z,12.64
2022-10-23T09:14:53.788Z,12.77
2022-10-23T09:17:20.134Z,13.02
2022-10-23T09:19:46.578Z,13.13
2022-10-23T09:22:13.508Z,13.25
2022-10-23T09:24:42.582Z,13.29
2022-10-23T09:27:11.396Z,13.29
2022-10-23T09:29:37.802Z,13.36
2022-10-23T09:32:06.245Z,13.40
2022-10-23T09:34:33.806Z,13.50
2022-10-23T09:37:01.681Z,13.56
2022-10-23T09:39:28.042Z,13.59
2022-10-23T09:41:56.933Z,13.64
2022-10-23T09:44:28.162Z,13.72
2022-10-23T09:47:08.428Z,13.76
2022-10-23T09:49:35.232Z,13.85
2022-10-23T09:52:03.652Z,13.94
2022-10-23T09:54:32.212Z,14.04
2022-10-23T09:57:02.009Z,14.20
2022-10-23T09:59:29.984Z,14.38
2022-10-23T10:02:00.782Z,14.43
2022-10-23T10:04:40.877Z,14.53
2022-10-23T10:07:18.163Z,14.60
2022-10-23T10:09:44.607Z,14.64
2022-10-23T10:12:13.759Z,14.67
2022-10-23T10:14:42.998Z,14.74
2022-10-23T10:17:31.246Z,14.81
2022-10-23T10:20:14.443Z,14.90
2022-10-23T10:22:45.452Z,15.01
2022-10-23T10:25:31.468Z,15.04
2022-10-23T10:28:16.554Z,15.11
2022-10-23T10:30:45.935Z,15.20
2022-10-23T10:33:18.785Z,15.27
2022-10-23T10:35:48.263Z,15.34
2022-10-23T10:38:32.015Z,15.44
2022-10-23T10:40:58.381Z,15.55
2022-10-23T10:43:54.263Z,15.61
2022-10-23T10:46:33.567Z,15.66
2022-10-23T10:49:02.049Z,15.79
2022-10-23T10:51:46.888Z,15.84
2022-10-23T10:54:18.677Z,15.91
2022-10-23T10:56:47.475Z,15.97
2022-10-23T10:59:22.026Z,16.02
2022-10-23T11:02:07.434Z,16.09
2022-10-23T11:04:37.106Z,16.16
2022-10-23T11:07:07.419Z,16.23
2022-10-23T11:09:33.797Z,16.34
2022-10-23T11:12:00.255Z,16.42
2022-10-23T11:14:27.597Z,16.49
2022-10-23T11:17:08.430Z,16.54
2022-10-23T11:19:37.828Z,16.61
2022-10-23T11:22:13.454Z,16.70
2022-10-23T11:24:50.076Z,16.75
2022-10-23T11:27:27.065Z,16.81
2022-10-23T11:29:57.222Z,16.86
2022-10-23T11:32:26.665Z,16.92
2022-10-23T11:34:59.250Z,17.00
2022-10-23T11:37:26.899Z,17.05
2022-10-23T11:40:00.198Z,17.11
2022-10-23T11:42:41.947Z,17.16
2022-10-23T11:45:27.162Z,17.28
2022-10-23T11:47:58.797Z,17.36
2022-10-23T11:50:27.451Z,17.46
2022-10-23T11:53:12.661Z,17.48
2022-10-23T11:55:39.734Z,17.49
2022-10-23T11:58:17.822Z,17.48
2022-10-23T12:00:52.855Z,17.55
2022-10-23T12:03:22.626Z,17.64
2022-10-23T12:05:56.587Z,17.69
2022-10-23T12:08:25.753Z,17.65
2022-10-23T12:10:53.149Z,17.67
2022-10-23T12:13:31.862Z,17.73
2022-10-23T12:16:00.745Z,17.82
2022-10-23T12:18:27.685Z,17.92
2022-10-23T12:20:56.179Z,17.98
2022-10-23T12:23:44.408Z,17.99
2022-10-23T12:26:16.780Z,18.06
2022-10-23T12:28:50.648Z,18.05
2022-10-23T12:31:17.007Z,18.06
2022-10-23T12:33:49.871Z,18.06
2022-10-23T12:36:25.193Z,18.05
2022-10-23T12:38:51.694Z,18.07
2022-10-23T12:41:18.103Z,18.05
2022-10-23T12:43:49.756Z,18.07
2022-10-23T12:46:17.771Z,18.09
2022-10-23T12:48:48.585Z,18.07
2022-10-23T12:51:22.220Z,18.07
2022-10-23T12:53:49.422Z,18.07
2022-10-23T12:56:16.030Z,18.08
2022-10-23T12:58:53.794Z,18.07
2022-10-23T13:01:28.027Z,18.08
2022-10-23T13:06:49.634Z,18.02
2022-10-23T13:09:35.895Z,18.04
2022-10-23T13:12:04.567Z,17.96
2022-10-23T13:14:57.255Z,17.89
2022-10-23T13:17:33.586Z,17.91
2022-10-23T13:20:10.047Z,17.89
2022-10-23T13:22:36.436Z,17.87
2022-10-23T13:25:02.804Z,17.83
2022-10-23T13:27:35.020Z,17.83
2022-10-23T13:30:01.992Z,17.88
2022-10-23T13:32:30.236Z,17.88
2022-10-23T13:35:20.929Z,17.89
2022-10-23T13:37:48.997Z,17.94
2022-10-23T13:40:26.074Z,17.96
2022-10-23T13:42:53.342Z,17.93
2022-10-23T13:45:20.998Z,17.87
2022-10-23T13:47:47.367Z,17.86
2022-10-23T13:50:13.816Z,17.87
2022-10-23T13:52:40.220Z,17.89
2022-10-23T13:55:15.632Z,17.87
2022-10-23T13:57:43.102Z,17.84
2022-10-23T14:00:10.031Z,17.83
2022-10-23T14:02:36.472Z,17.81
2022-10-23T14:05:02.902Z,17.81
2022-10-23T14:07:29.268Z,17.78
2022-10-23T14:09:55.719Z,17.74
2022-10-23T14:12:22.087Z,17.69
2022-10-23T14:14:52.514Z,17.59
2022-10-23T14:17:23.013Z,17.55
2022-10-23T14:19:50.225Z,17.52
2022-10-23T14:22:18.037Z,17.39
2022-10-23T14:24:44.466Z,17.35
2022-10-23T14:27:12.229Z,17.30
2022-10-23T14:29:40.398Z,17.18
2022-10-23T14:32:06.758Z,17.11
2022-10-23T14:34:33.231Z,17.09
2022-10-23T14:37:14.933Z,17.05
2022-10-23T14:39:42.656Z,17.00
2022-10-23T14:42:11.706Z,16.93
2022-10-23T14:47:05.788Z,16.79
2022-10-23T14:49:32.412Z,16.74
2022-10-23T14:51:58.789Z,16.68
2022-10-23T14:54:25.186Z,16.64
2022-10-23T14:56:51.560Z,16.50
2022-10-23T14:59:17.951Z,16.40
2022-10-23T15:01:48.722Z,16.30
2022-10-23T15:04:15.342Z,16.23
2022-10-23T15:06:42.018Z,16.11
2022-10-23T15:09:08.431Z,16.01
2022-10-23T15:11:34.873Z,15.91
2022-10-23T15:14:01.241Z,15.84
2022-10-23T15:16:27.697Z,15.74
2022-10-23T15:18:54.078Z,15.66
2022-10-23T15:21:20.488Z,15.57
2022-10-23T15:23:47.537Z,15.49
2022-10-23T15:26:20.096Z,15.40
2022-10-23T15:28:47.052Z,15.30
2022-10-23T15:31:28.763Z,15.22
2022-10-23T15:33:55.706Z,15.11
2022-10-23T15:36:22.078Z,15.02
2022-10-23T15:38:49.025Z,14.93
2022-10-23T15:41:17.162Z,14.83
2022-10-23T15:43:43.594Z,14.71
2022-10-23T15:46:09.989Z,14.62
2022-10-23T15:48:36.364Z,14.51
2022-10-23T15:51:02.892Z,14.41
2022-10-23T15:53:29.249Z,14.26
2022-10-23T15:55:58.760Z,14.16
2022-10-23T15:58:25.530Z,14.08
2022-10-23T16:00:52.215Z,13.98
2022-10-23T16:03:18.610Z,13.90
2022-10-23T16:05:44.962Z,13.78
2022-10-23T16:08:11.329Z,13.71
2022-10-23T16:10:41.761Z,13.63
2022-10-23T16:13:08.681Z,13.55
2022-10-23T16:15:38.296Z,13.45
2022-10-23T16:18:04.724Z,13.35
2022-10-23T16:20:31.124Z,13.34
2022-10-23T16:22:57.502Z,13.28
2022-10-23T16:25:24.011Z,13.20
2022-10-23T16:27:50.468Z,13.07
2022-10-23T16:30:16.986Z,12.98
2022-10-23T16:32:43.425Z,12.93
2022-10-23T16:35:12.960Z,12.87
2022-10-23T16:37:39.592Z,12.80
2022-10-23T16:40:06.316Z,12.73
2022-10-23T16:42:33.304Z,12.61
2022-10-23T16:44:59.752Z,12.51
2022-10-23T16:47:26.168Z,12.43
2022-10-23T16:49:52.534Z,12.37
2022-10-23T16:52:18.910Z,12.30
2022-10-23T16:54:45.289Z,12.22
2022-10-23T16:57:11.670Z,12.12
2022-10-23T16:59:38.036Z,12.06
2022-10-23T17:02:04.893Z,11.99
2022-10-23T17:04:31.508Z,11.96
2022-10-23T17:06:57.893Z,11.92
2022-10-23T17:09:26.498Z,11.87
2022-10-23T17:11:54.133Z,11.82
2022-10-23T17:14:21.245Z,11.76
2022-10-23T17:16:49.245Z,11.72
2022-10-23T17:19:40.114Z,11.68
2022-10-23T17:22:10.330Z,11.62
2022-10-23T17:24:37.753Z,11.53
2022-10-23T17:27:04.512Z,11.44
2022-10-23T17:29:30.918Z,11.38
2022-10-23T17:31:57.288Z,11.31
2022-10-23T17:34:24.024Z,11.25
2022-10-23T17:36:52.467Z,11.20
2022-10-23T17:39:20.490Z,11.14
2022-10-23T17:41:46.865Z,11.09
2022-10-23T17:44:13.324Z,11.05
2022-10-23T17:46:39.866Z,10.98
2022-10-23T17:49:06.644Z,10.89
2022-10-23T17:51:34.447Z,10.82
2022-10-23T17:54:02.176Z,10.78
2022-10-23T17:56:29.961Z,10.78
2022-10-23T17:59:00.761Z,10.71
2022-10-23T18:01:27.875Z,10.66
2022-10-23T18:03:55.728Z,10.61
2022-10-23T18:06:29.554Z,10.53
2022-10-23T18:08:56.557Z,10.43
2022-10-23T18:11:24.070Z,10.36
2022-10-23T18:13:50.796Z,10.28
2022-10-23T18:16:17.677Z,10.23
2022-10-23T18:18:44.769Z,10.21
2022-10-23T18:21:11.271Z,10.15
2022-10-23T18:23:37.667Z,10.11
2022-10-23T18:26:05.117Z,10.10
2022-10-23T18:28:31.759Z,10.08
2022-10-23T18:30:58.284Z,10.04
2022-10-23T18:33:24.851Z,10.01
2022-10-23T18:35:51.266Z,9.95
2022-10-23T18:38:17.683Z,9.90
2022-10-23T18:40:44.068Z,9.90
2022-10-23T18:43:14.894Z,9.84
2022-10-23T18:45:42.115Z,9.83
2022-10-23T18:48:08.482Z,9.76
2022-10-23T18:50:38.223Z,9.70
2022-10-23T18:53:04.686Z,9.64
2022-10-23T18:55:31.107Z,9.66
2022-10-23T18:57:57.854Z,9.65
2022-10-23T19:00:24.294Z,9.60
2022-10-23T19:02:52.361Z,9.53
2022-10-23T19:05:19.254Z,9.48
2022-10-23T19:07:45.892Z,9.43
2022-10-23T19:10:15.900Z,9.41
2022-10-23T19:12:42.810Z,9.38
2022-10-23T19:15:09.995Z,9.33
2022-10-23T19:17:36.832Z,9.31
2022-10-23T19:20:06.532Z,9.28
2022-10-23T19:22:34.435Z,9.23
2022-10-23T19:25:10.242Z,9.24
2022-10-23T19:27:38.550Z,9.24
2022-10-23T19:30:08.695Z,9.22
2022-10-23T19:32:35.067Z,9.22
2022-10-23T19:35:01.500Z,9.19
2022-10-23T19:37:27.958Z,9.12
2022-10-23T19:39:54.319Z,9.09
2022-10-23T19:42:20.682Z,9.03
2022-10-23T19:44:47.067Z,8.99
2022-10-23T19:47:13.448Z,9.01
2022-10-23T19:49:39.851Z,9.03
2022-10-23T19:52:06.357Z,9.05
2022-10-23T19:54:32.845Z,9.04
2022-10-23T19:56:59.287Z,9.06
2022-10-23T19:59:25.656Z,9.05
2022-10-23T20:01:52.247Z,9.02
2022-10-23T20:04:18.730Z,9.00
2022-10-23T20:06:45.289Z,8.99
2022-10-23T20:09:11.854Z,8.98
2022-10-23T20:11:39.063Z,8.93
2022-10-23T20:14:05.847Z,8.92
2022-10-23T20:16:33.544Z,8.92
2022-10-23T20:19:01.930Z,8.88
2022-10-23T20:21:28.285Z,8.88
2022-10-23T20:23:56.251Z,8.85
2022-10-23T20:26:22.702Z,8.86
2022-10-23T20:28:51.642Z,8.83
2022-10-23T20:31:18.958Z,8.88
2022-10-23T20:33:45.723Z,8.94
2022-10-23T20:36:50.678Z,8.94
2022-10-23T20:39:18.767Z,8.90
2022-10-23T20:41:45.262Z,8.89
2022-10-23T20:44:13.020Z,8.88
2022-10-23T20:46:39.468Z,8.84
2022-10-23T20:49:05.949Z,8.83
2022-10-23T20:51:32.369Z,8.86
2022-10-23T20:53:58.809Z,8.86
2022-10-23T20:56:30.306Z,8.85
2022-10-23T20:59:01.259Z,8.88
2022-10-23T21:01:28.097Z,8.88
2022-10-23T21:03:58.612Z,8.89
2022-10-23T21:06:26.162Z,8.87
2022-10-23T21:08:56.351Z,8.87
2022-10-23T21:11:22.724Z,8.87
2022-10-23T21:13:49.076Z,8.87
2022-10-23T21:16:17.310Z,8.86
2022-10-23T21:18:46.340Z,8.81
2022-10-23T21:21:14.517Z,8.77
2022-10-23T21:23:41.068Z,8.75
2022-10-23T21:26:07.842Z,8.72
2022-10-23T21:28:34.252Z,8.69
2022-10-23T21:31:05.248Z,8.68
2022-10-23T21:33:32.036Z,8.70
2022-10-23T21:36:12.912Z,8.71
2022-10-23T21:38:40.219Z,8.70
2022-10-23T21:41:17.066Z,8.66
2022-10-23T21:43:43.518Z,8.65
2022-10-23T21:46:14.369Z,8.63
2022-10-23T21:48:41.225Z,8.59
2022-10-23T21:51:12.032Z,8.54
2022-10-23T21:53:38.447Z,8.54
2022-10-23T21:56:05.411Z,8.48
2022-10-23T21:58:32.358Z,8.46
2022-10-23T22:00:58.867Z,8.45
2022-10-23T22:03:25.269Z,8.43
2022-10-23T22:05:51.667Z,8.41
2022-10-23T22:08:18.034Z,8.42
2022-10-23T22:10:44.428Z,8.41
2022-10-23T22:13:10.827Z,8.40
2022-10-23T22:15:37.230Z,8.39
2022-10-23T22:18:03.658Z,8.36
2022-10-23T22:20:30.084Z,8.32
2022-10-23T22:22:56.542Z,8.28
2022-10-23T22:25:22.912Z,8.22
2022-10-23T22:27:49.330Z,8.20
2022-10-23T22:30:16.256Z,8.21
2022-10-23T22:32:42.943Z,8.21
2022-10-23T22:35:09.561Z,8.20
2022-10-23T22:37:35.944Z,8.16
2022-10-23T22:40:02.517Z,8.12
2022-10-23T22:42:28.927Z,8.10
2022-10-23T22:44:55.326Z,8.10
2022-10-23T22:47:21.719Z,8.06
2022-10-23T22:49:48.120Z,8.03
2022-10-23T22:52:14.494Z,8.03
2022-10-23T22:54:40.896Z,8.03
2022-10-23T22:57:07.262Z,8.02
2022-10-23T22:59:33.639Z,8.02
2022-10-23T23:02:00.040Z,8.04
2022-10-23T23:04:43.097Z,8.05
2022-10-23T23:07:11.249Z,8.03
2022-10-23T23:09:38.706Z,8.03
2022-10-23T23:12:05.508Z,8.05
2022-10-23T23:14:32.052Z,8.03
2022-10-23T23:16:59.114Z,8.03
2022-10-23T23:19:26.641Z,8.04
2022-10-23T23:21:56.690Z,8.04
2022-10-23T23:24:23.232Z,8.03
2022-10-23T23:26:49.608Z,8.00
2022-10-23T23:29:16.017Z,7.94
2022-10-23T23:31:42.468Z,7.91
2022-10-23T23:34:08.866Z,7.92
2022-10-23T23:36:35.339Z,7.92
2022-10-23T23:39:02.199Z,7.94
2022-10-23T23:41:28.888Z,7.98
2022-10-23T23:43:56.611Z,8.03
2022-10-23T23:46:22.974Z,8.03
2022-10-23T23:48:49.948Z,8.01
2022-10-23T23:51:17.604Z,8.03
2022-10-23T23:53:44.036Z,8.04
2022-10-23T23:56:10.419Z,8.05
2022-10-23T23:58:36.876Z,8.02
